Time,TemperatureF,DewpointF,PressureIn,WindDirection,WindDirectionDegrees,WindSpeedMPH,WindSpeedGustMPH,Humidity,HourlyPrecipIn,Conditions,Clouds,dailyrainin,SoftwareType,DateUTC
2013-05-29 00:13:00,73.5,61.0,29.98,SSE,162,0.0,1.0,65,0.00,,,0.00,weatherlink.com 1.10,2013-05-29 05:13:00,
2013-05-29 00:28:00,73.3,61.0,29.99,SSW,201,0.0,1.0,66,0.00,,,0.00,weatherlink.com 1.10,2013-05-29 05:28:00,
2013-05-29 00:43:00,72.9,61.0,29.99,SSW,201,0.0,0.0,67,0.00,,,0.00,weatherlink.com 1.10,2013-05-29 05:43:00,
2013-05-29 00:58:00,72.2,61.0,30.00,SSW,201,0.0,0.0,68,0.00,,,0.00,weatherlink.com 1.10,2013-05-29 05:58:00,
2013-05-29 01:13:00,71.7,61.0,30.00,SSW,201,0.0,0.0,69,0.00,,,0.00,weatherlink.com 1.10,2013-05-29 06:13:00,
2013-05-29 01:28:00,71.3,61.0,30.00,SSW,201,0.0,0.0,70,0.00,,,0.00,weatherlink.com 1.10,2013-05-29 06:28:00,
2013-05-29 01:43:00,70.4,61.0,30.00,SSW,201,0.0,0.0,72,0.00,,,0.00,weatherlink.com 1.10,2013-05-29 06:43:00,
2013-05-29 01:59:00,69.6,61.0,30.00,SSW,201,0.0,0.0,73,0.00,,,0.00,weatherlink.com 1.10,2013-05-29 06:59:00,
2013-05-29 02:14:00,69.7,61.0,30.00,SSW,201,0.0,0.0,73,0.00,,,0.00,weatherlink.com 1.10,2013-05-29 07:14:00,
2013-05-29 02:29:00,69.6,61.0,30.00,SSE,167,0.0,1.0,73,0.00,,,0.00,weatherlink.com 1.10,2013-05-29 07:29:00,
2013-05-29 02:44:00,69.6,61.0,30.00,SSE,167,0.0,1.0,73,0.00,,,0.00,weatherlink.com 1.10,2013-05-29 07:44:00,
2013-05-29 02:59:00,69.6,60.0,30.00,SSE,156,0.0,1.0,72,0.00,,,0.00,weatherlink.com 1.10,2013-05-29 07:59:00,
2013-05-29 03:14:00,69.6,60.0,30.01,SSW,199,0.0,0.0,72,0.00,,,0.00,weatherlink.com 1.10,2013-05-29 08:14:00,
2013-05-29 03:29:00,69.6,60.0,30.01,South,183,0.0,0.0,72,0.00,,,0.00,weatherlink.com 1.10,2013-05-29 08:29:00,
2013-05-29 03:44:00,69.7,60.0,30.01,SSW,193,0.0,0.0,71,0.00,,,0.00,weatherlink.com 1.10,2013-05-29 08:44:00,
2013-05-29 03:59:00,69.6,60.0,30.01,SSW,192,0.0,0.0,71,0.00,,,0.00,weatherlink.com 1.10,2013-05-29 08:59:00,
2013-05-29 04:14:00,69.1,60.0,30.01,South,191,0.0,0.0,72,0.00,,,0.00,weatherlink.com 1.10,2013-05-29 09:14:00,
2013-05-29 04:29:00,68.5,60.0,30.02,South,191,0.0,0.0,73,0.00,,,0.00,weatherlink.com 1.10,2013-05-29 09:29:00,
2013-05-29 04:44:00,67.4,59.0,30.02,South,191,0.0,0.0,75,0.00,,,0.00,weatherlink.com 1.10,2013-05-29 09:44:00,
2013-05-29 04:59:00,66.6,60.0,30.02,South,190,0.0,0.0,78,0.00,,,0.00,weatherlink.com 1.10,2013-05-29 09:59:00,
2013-05-29 05:14:00,66.0,59.0,30.03,South,190,0.0,0.0,79,0.00,,,0.00,weatherlink.com 1.10,2013-05-29 10:14:00,
2013-05-29 05:29:00,66.1,60.0,30.03,South,190,0.0,0.0,80,0.00,,,0.00,weatherlink.com 1.10,2013-05-29 10:29:00,
2013-05-29 05:44:00,65.8,60.0,30.04,South,190,0.0,0.0,81,0.00,,,0.00,weatherlink.com 1.10,2013-05-29 10:44:00,
2013-05-29 05:59:00,66.0,60.0,30.04,SSW,193,0.0,0.0,81,0.00,,,0.00,weatherlink.com 1.10,2013-05-29 10:59:00,
2013-05-29 06:14:00,66.2,60.0,30.04,SSW,193,0.0,0.0,81,0.00,,,0.00,weatherlink.com 1.10,2013-05-29 11:14:00,
2013-05-29 06:29:00,66.4,61.0,30.05,SSW,210,0.0,0.0,82,0.00,,,0.00,weatherlink.com 1.10,2013-05-29 11:29:00,
2013-05-29 06:44:00,67.1,61.0,30.05,SSW,197,0.0,0.0,81,0.00,,,0.00,weatherlink.com 1.10,2013-05-29 11:44:00,
2013-05-29 06:59:00,69.4,63.0,30.05,SSW,192,0.0,1.0,79,0.00,,,0.00,weatherlink.com 1.10,2013-05-29 11:59:00,
2013-05-29 07:14:00,71.7,64.0,30.05,SSW,205,0.0,0.0,76,0.00,,,0.00,weatherlink.com 1.10,2013-05-29 12:14:00,
2013-05-29 07:29:00,72.1,65.0,30.05,South,169,0.0,0.0,77,0.00,,,0.00,weatherlink.com 1.10,2013-05-29 12:29:00,
2013-05-29 07:44:00,72.2,65.0,30.05,ENE,78,0.0,2.0,79,0.00,,,0.00,weatherlink.com 1.10,2013-05-29 12:44:00,
2013-05-29 07:59:00,73.0,66.0,30.04,WSW,243,1.0,2.0,79,0.00,,,0.00,weatherlink.com 1.10,2013-05-29 12:59:00,
2013-05-29 08:14:00,73.9,67.0,30.04,WSW,243,1.0,1.0,78,0.00,,,0.00,weatherlink.com 1.10,2013-05-29 13:14:00,
2013-05-29 08:29:00,74.9,67.0,30.04,WSW,240,0.0,2.0,76,0.00,,,0.00,weatherlink.com 1.10,2013-05-29 13:29:00,
2013-05-29 08:44:00,76.4,68.0,30.05,NNE,33,0.0,1.0,75,0.00,,,0.00,weatherlink.com 1.10,2013-05-29 13:44:00,
2013-05-29 08:59:00,78.4,68.0,30.05,WSW,246,0.0,3.0,71,0.00,,,0.00,weatherlink.com 1.10,2013-05-29 13:59:00,
2013-05-29 09:14:00,79.8,69.0,30.04,SW,217,0.0,4.0,69,0.00,,,0.00,weatherlink.com 1.10,2013-05-29 14:14:00,
2013-05-29 09:29:00,81.4,69.0,30.04,SSW,207,0.0,2.0,67,0.00,,,0.00,weatherlink.com 1.10,2013-05-29 14:29:00,
2013-05-29 09:44:00,82.1,70.0,30.04,SW,231,1.0,1.0,67,0.00,,,0.00,weatherlink.com 1.10,2013-05-29 14:44:00,
2013-05-29 09:59:00,81.6,70.0,30.04,West,273,1.0,3.0,67,0.00,,,0.00,weatherlink.com 1.10,2013-05-29 14:59:00,
2013-05-29 10:15:00,81.7,70.0,30.04,SSW,212,1.0,1.0,67,0.00,,,0.00,weatherlink.com 1.10,2013-05-29 15:15:00,
2013-05-29 10:30:00,83.1,70.0,30.04,South,190,0.0,2.0,65,0.00,,,0.00,weatherlink.com 1.10,2013-05-29 15:30:00,
2013-05-29 10:45:00,83.9,70.0,30.04,SW,235,0.0,2.0,64,0.00,,,0.00,weatherlink.com 1.10,2013-05-29 15:45:00,
2013-05-29 11:00:00,83.9,70.0,30.04,South,190,0.0,3.0,63,0.00,,,0.00,weatherlink.com 1.10,2013-05-29 16:00:00,
2013-05-29 11:15:00,84.2,69.0,30.05,SSW,197,0.0,3.0,61,0.00,,,0.00,weatherlink.com 1.10,2013-05-29 16:15:00,
2013-05-29 11:30:00,84.4,68.0,30.05,SSW,207,0.0,2.0,59,0.00,,,0.00,weatherlink.com 1.10,2013-05-29 16:30:00,
2013-05-29 11:45:00,85.3,70.0,30.04,ENE,70,2.0,3.0,61,0.00,,,0.00,weatherlink.com 1.10,2013-05-29 16:45:00,
2013-05-29 12:00:00,85.6,69.0,30.04,ESE,104,0.0,3.0,57,0.00,,,0.00,weatherlink.com 1.10,2013-05-29 17:00:00,
2013-05-29 12:15:00,85.7,69.0,30.05,SSW,202,0.0,3.0,58,0.00,,,0.00,weatherlink.com 1.10,2013-05-29 17:15:00,
2013-05-29 12:30:00,85.9,68.0,30.04,SSE,155,0.0,3.0,56,0.00,,,0.00,weatherlink.com 1.10,2013-05-29 17:30:00,
2013-05-29 12:45:00,86.5,67.0,30.04,South,173,4.0,4.0,53,0.00,,,0.00,weatherlink.com 1.10,2013-05-29 17:45:00,
2013-05-29 13:00:00,86.9,68.0,30.03,SSW,208,1.0,3.0,53,0.00,,,0.00,weatherlink.com 1.10,2013-05-29 18:00:00,
2013-05-29 13:15:00,87.6,68.0,30.02,SE,143,1.0,3.0,52,0.00,,,0.00,weatherlink.com 1.10,2013-05-29 18:15:00,
2013-05-29 13:30:00,88.2,66.0,30.02,SSE,165,1.0,3.0,48,0.00,,,0.00,weatherlink.com 1.10,2013-05-29 18:30:00,
2013-05-29 13:45:00,89.0,65.0,30.01,SW,218,2.0,4.0,45,0.00,,,0.00,weatherlink.com 1.10,2013-05-29 18:45:00,
2013-05-29 14:01:00,89.5,63.0,30.01,SE,142,1.0,3.0,42,0.00,,,0.00,weatherlink.com 1.10,2013-05-29 19:01:00,
2013-05-29 14:15:00,89.7,64.0,30.01,SSW,195,4.0,4.0,42,0.00,,,0.00,weatherlink.com 1.10,2013-05-29 19:15:00,
2013-05-29 14:30:00,89.6,63.0,30.01,ENE,61,0.0,2.0,41,0.00,,,0.00,weatherlink.com 1.10,2013-05-29 19:30:00,
2013-05-29 14:45:00,90.4,62.0,30.01,ENE,64,2.0,4.0,39,0.00,,,0.00,weatherlink.com 1.10,2013-05-29 19:45:00,
2013-05-29 15:00:00,90.6,64.0,30.00,SSW,207,1.0,4.0,41,0.00,,,0.00,weatherlink.com 1.10,2013-05-29 20:00:00,
2013-05-29 15:15:00,90.2,63.0,29.99,SSW,208,0.0,3.0,41,0.00,,,0.00,weatherlink.com 1.10,2013-05-29 20:15:00,
2013-05-29 15:30:00,90.5,64.0,29.98,SSE,157,0.0,5.0,42,0.00,,,0.00,weatherlink.com 1.10,2013-05-29 20:30:00,
2013-05-29 15:45:00,91.0,66.0,29.98,East,92,0.0,2.0,43,0.00,,,0.00,weatherlink.com 1.10,2013-05-29 20:45:00,
2013-05-29 16:00:00,90.8,67.0,29.97,SSE,160,2.0,4.0,46,0.00,,,0.00,weatherlink.com 1.10,2013-05-29 21:00:00,
2013-05-29 16:15:00,91.0,70.0,29.97,SSW,204,1.0,2.0,50,0.00,,,0.00,weatherlink.com 1.10,2013-05-29 21:15:00,
2013-05-29 16:31:00,90.1,70.0,29.96,SSW,207,1.0,7.0,52,0.00,,,0.00,weatherlink.com 1.10,2013-05-29 21:31:00,
2013-05-29 16:45:00,87.7,70.0,29.96,East,98,3.0,4.0,56,0.00,,,0.00,weatherlink.com 1.10,2013-05-29 21:45:00,
2013-05-29 17:00:00,87.3,70.0,29.96,SSW,194,1.0,4.0,57,0.00,,,0.00,weatherlink.com 1.10,2013-05-29 22:00:00,
2013-05-29 17:15:00,88.4,71.0,29.96,South,191,1.0,2.0,56,0.00,,,0.00,weatherlink.com 1.10,2013-05-29 22:15:00,
2013-05-29 17:30:00,89.7,70.0,29.96,South,186,2.0,3.0,53,0.00,,,0.00,weatherlink.com 1.10,2013-05-29 22:30:00,
2013-05-29 17:46:00,86.9,69.0,29.95,SSE,166,1.0,2.0,56,0.00,,,0.00,weatherlink.com 1.10,2013-05-29 22:46:00,
2013-05-29 18:00:00,85.6,70.0,29.95,SSW,197,0.0,2.0,59,0.00,,,0.00,weatherlink.com 1.10,2013-05-29 23:00:00,
2013-05-29 18:16:00,86.8,70.0,29.95,SSE,163,1.0,4.0,57,0.00,,,0.00,weatherlink.com 1.10,2013-05-29 23:16:00,
2013-05-29 18:30:00,86.7,70.0,29.95,SSE,160,0.0,2.0,57,0.00,,,0.00,weatherlink.com 1.10,2013-05-29 23:30:00,
2013-05-29 18:45:00,86.6,69.0,29.95,NE,36,2.0,3.0,56,0.00,,,0.00,weatherlink.com 1.10,2013-05-29 23:45:00,
2013-05-29 19:01:00,86.5,69.0,29.95,East,95,1.0,3.0,56,0.00,,,0.00,weatherlink.com 1.10,2013-05-30 00:01:00,
2013-05-29 19:15:00,85.1,69.0,29.94,ESE,106,1.0,1.0,58,0.00,,,0.00,weatherlink.com 1.10,2013-05-30 00:15:00,
2013-05-29 19:31:00,83.7,68.0,29.94,ENE,72,0.0,3.0,60,0.00,,,0.00,weatherlink.com 1.10,2013-05-30 00:31:00,
2013-05-29 19:46:00,82.6,69.0,29.93,SE,133,0.0,1.0,63,0.00,,,0.00,weatherlink.com 1.10,2013-05-30 00:46:00,
2013-05-29 20:01:00,81.9,69.0,29.94,ESE,106,0.0,1.0,64,0.00,,,0.00,weatherlink.com 1.10,2013-05-30 01:01:00,
2013-05-29 20:16:00,81.4,69.0,29.95,SW,218,0.0,1.0,66,0.00,,,0.00,weatherlink.com 1.10,2013-05-30 01:16:00,
2013-05-29 20:31:00,81.3,69.0,29.95,South,190,0.0,2.0,66,0.00,,,0.00,weatherlink.com 1.10,2013-05-30 01:31:00,
2013-05-29 20:47:00,81.1,69.0,29.95,South,188,0.0,3.0,67,0.00,,,0.00,weatherlink.com 1.10,2013-05-30 01:47:00,
2013-05-29 21:01:00,81.2,69.0,29.96,ESE,122,1.0,5.0,66,0.00,,,0.00,weatherlink.com 1.10,2013-05-30 02:01:00,
2013-05-29 21:16:00,81.1,69.0,29.95,East,84,1.0,3.0,67,0.00,,,0.00,weatherlink.com 1.10,2013-05-30 02:16:00,
2013-05-29 21:31:00,80.8,67.0,29.94,South,190,3.0,4.0,64,0.00,,,0.00,weatherlink.com 1.10,2013-05-30 02:31:00,
2013-05-29 21:46:00,80.3,67.0,29.95,SSE,163,0.0,4.0,65,0.00,,,0.00,weatherlink.com 1.10,2013-05-30 02:46:00,
2013-05-29 22:01:00,79.6,67.0,29.95,SSW,194,1.0,2.0,65,0.00,,,0.00,weatherlink.com 1.10,2013-05-30 03:01:00,
2013-05-29 22:16:00,79.2,67.0,29.95,SSW,207,0.0,4.0,66,0.00,,,0.00,weatherlink.com 1.10,2013-05-30 03:16:00,
2013-05-29 22:31:00,78.8,67.0,29.95,SSE,162,0.0,4.0,67,0.00,,,0.00,weatherlink.com 1.10,2013-05-30 03:31:00,
2013-05-29 22:46:00,78.5,67.0,29.95,ESE,123,2.0,3.0,68,0.00,,,0.00,weatherlink.com 1.10,2013-05-30 03:46:00,
2013-05-29 23:01:00,78.3,67.0,29.96,South,170,2.0,4.0,69,0.00,,,0.00,weatherlink.com 1.10,2013-05-30 04:01:00,
2013-05-29 23:16:00,78.0,68.0,29.96,SSW,203,0.0,1.0,71,0.00,,,0.00,weatherlink.com 1.10,2013-05-30 04:16:00,
2013-05-29 23:31:00,77.8,68.0,29.96,SSW,197,0.0,4.0,71,0.00,,,0.00,weatherlink.com 1.10,2013-05-30 04:31:00,
2013-05-29 23:46:00,77.5,68.0,29.96,South,179,2.0,5.0,72,0.00,,,0.00,weatherlink.com 1.10,2013-05-30 04:46:00,